sensor_id;sensor_type;location;lat;lon;timestamp;P1;durP1;ratioP1;P2;durP2;ratioP2
7563;SDS011;3823;53.586;10.040;2022-12-29T00:01:35;3.88;;;3.53;;
7563;SDS011;3823;53.586;10.040;2022-12-29T00:04:02;4.80;;;4.07;;
7563;SDS011;3823;53.586;10.040;2022-12-29T00:06:28;4.60;;;4.20;;
7563;SDS011;3823;53.586;10.040;2022-12-29T00:08:54;4.25;;;3.95;;
7563;SDS011;3823;53.586;10.040;2022-12-29T00:11:24;5.47;;;3.78;;
7563;SDS011;3823;53.586;10.040;2022-12-29T00:13:51;4.75;;;4.13;;
7563;SDS011;3823;53.586;10.040;2022-12-29T00:16:36;4.47;;;3.95;;
7563;SDS011;3823;53.586;10.040;2022-12-29T00:19:05;3.60;;;3.40;;
7563;SDS011;3823;53.586;10.040;2022-12-29T00:21:30;4.25;;;3.95;;
7563;SDS011;3823;53.586;10.040;2022-12-29T00:27:08;5.20;;;4.80;;
7563;SDS011;3823;53.586;10.040;2022-12-29T00:29:55;4.00;;;3.70;;
7563;SDS011;3823;53.586;10.040;2022-12-29T00:32:39;4.70;;;4.40;;
7563;SDS011;3823;53.586;10.040;2022-12-29T00:35:25;3.90;;;3.60;;
7563;SDS011;3823;53.586;10.040;2022-12-29T00:37:55;4.90;;;4.20;;
7563;SDS011;3823;53.586;10.040;2022-12-29T00:40:42;5.00;;;4.60;;
7563;SDS011;3823;53.586;10.040;2022-12-29T00:43:26;5.30;;;4.80;;
7563;SDS011;3823;53.586;10.040;2022-12-29T00:46:10;4.15;;;3.85;;
7563;SDS011;3823;53.586;10.040;2022-12-29T00:48:35;6.80;;;5.00;;
7563;SDS011;3823;53.586;10.040;2022-12-29T00:51:19;4.55;;;4.15;;
7563;SDS011;3823;53.586;10.040;2022-12-29T00:53:45;5.70;;;5.20;;
7563;SDS011;3823;53.586;10.040;2022-12-29T00:56:10;4.55;;;4.20;;
7563;SDS011;3823;53.586;10.040;2022-12-29T00:58:36;6.82;;;4.30;;
7563;SDS011;3823;53.586;10.040;2022-12-29T01:01:06;4.35;;;4.05;;
7563;SDS011;3823;53.586;10.040;2022-12-29T01:03:33;5.78;;;5.22;;
7563;SDS011;3823;53.586;10.040;2022-12-29T01:06:01;5.60;;;4.40;;
7563;SDS011;3823;53.586;10.040;2022-12-29T01:08:28;7.57;;;3.85;;
7563;SDS011;3823;53.586;10.040;2022-12-29T01:10:58;4.68;;;4.28;;
7563;SDS011;3823;53.586;10.040;2022-12-29T01:13:24;4.22;;;3.92;;
7563;SDS011;3823;53.586;10.040;2022-12-29T01:15:50;4.78;;;4.13;;
7563;SDS011;3823;53.586;10.040;2022-12-29T01:18:16;4.95;;;4.60;;
7563;SDS011;3823;53.586;10.040;2022-12-29T01:20:42;4.80;;;4.40;;
7563;SDS011;3823;53.586;10.040;2022-12-29T01:23:07;6.10;;;4.47;;
7563;SDS011;3823;53.586;10.040;2022-12-29T01:25:33;6.22;;;4.50;;
7563;SDS011;3823;53.586;10.040;2022-12-29T01:27:58;4.20;;;3.90;;
7563;SDS011;3823;53.586;10.040;2022-12-29T01:30:24;5.18;;;4.70;;
7563;SDS011;3823;53.586;10.040;2022-12-29T01:32:50;4.85;;;4.47;;
7563;SDS011;3823;53.586;10.040;2022-12-29T01:35:15;8.10;;;4.47;;
7563;SDS011;3823;53.586;10.040;2022-12-29T01:37:41;4.80;;;4.40;;
7563;SDS011;3823;53.586;10.040;2022-12-29T01:40:06;4.68;;;4.28;;
7563;SDS011;3823;53.586;10.040;2022-12-29T01:42:32;5.53;;;4.75;;
7563;SDS011;3823;53.586;10.040;2022-12-29T01:45:02;6.80;;;4.65;;
7563;SDS011;3823;53.586;10.040;2022-12-29T01:47:35;5.10;;;4.72;;
7563;SDS011;3823;53.586;10.040;2022-12-29T01:50:04;5.43;;;5.03;;
7563;SDS011;3823;53.586;10.040;2022-12-29T01:52:36;5.55;;;5.13;;
7563;SDS011;3823;53.586;10.040;2022-12-29T01:55:07;5.53;;;5.13;;
7563;SDS011;3823;53.586;10.040;2022-12-29T01:57:37;5.68;;;5.18;;
7563;SDS011;3823;53.586;10.040;2022-12-29T02:00:09;5.55;;;5.13;;
7563;SDS011;3823;53.586;10.040;2022-12-29T02:02:37;7.35;;;5.03;;
7563;SDS011;3823;53.586;10.040;2022-12-29T02:05:05;6.18;;;5.68;;
7563;SDS011;3823;53.586;10.040;2022-12-29T02:07:36;7.30;;;6.38;;
7563;SDS011;3823;53.586;10.040;2022-12-29T02:10:03;6.05;;;5.32;;
7563;SDS011;3823;53.586;10.040;2022-12-29T02:12:29;7.43;;;6.35;;
7563;SDS011;3823;53.586;10.040;2022-12-29T02:14:55;8.32;;;6.00;;
7563;SDS011;3823;53.586;10.040;2022-12-29T02:25:55;7.93;;;6.25;;
7563;SDS011;3823;53.586;10.040;2022-12-29T02:31:45;6.38;;;5.78;;
7563;SDS011;3823;53.586;10.040;2022-12-29T02:34:47;5.88;;;5.38;;
7563;SDS011;3823;53.586;10.040;2022-12-29T02:37:26;8.52;;;5.97;;
7563;SDS011;3823;53.586;10.040;2022-12-29T02:42:42;8.13;;;6.13;;
7563;SDS011;3823;53.586;10.040;2022-12-29T02:50:33;6.30;;;5.75;;
7563;SDS011;3823;53.586;10.040;2022-12-29T02:53:09;8.05;;;5.72;;
7563;SDS011;3823;53.586;10.040;2022-12-29T02:55:38;5.55;;;4.95;;
7563;SDS011;3823;53.586;10.040;2022-12-29T02:58:09;7.72;;;5.03;;
7563;SDS011;3823;53.586;10.040;2022-12-29T03:00:56;6.38;;;5.72;;
7563;SDS011;3823;53.586;10.040;2022-12-29T03:06:30;6.30;;;5.70;;
7563;SDS011;3823;53.586;10.040;2022-12-29T03:11:50;5.40;;;4.90;;
7563;SDS011;3823;53.586;10.040;2022-12-29T03:17:45;5.28;;;4.78;;
7563;SDS011;3823;53.586;10.040;2022-12-29T03:20:38;4.32;;;3.92;;
7563;SDS011;3823;53.586;10.040;2022-12-29T03:23:12;5.05;;;4.55;;
7563;SDS011;3823;53.586;10.040;2022-12-29T03:25:40;5.35;;;4.63;;
7563;SDS011;3823;53.586;10.040;2022-12-29T03:28:16;5.80;;;5.28;;
7563;SDS011;3823;53.586;10.040;2022-12-29T03:30:45;4.13;;;3.72;;
7563;SDS011;3823;53.586;10.040;2022-12-29T03:33:12;7.53;;;4.07;;
7563;SDS011;3823;53.586;10.040;2022-12-29T03:35:45;6.13;;;4.30;;
7563;SDS011;3823;53.586;10.040;2022-12-29T03:38:15;4.90;;;4.50;;
7563;SDS011;3823;53.586;10.040;2022-12-29T03:40:44;5.07;;;4.53;;
7563;SDS011;3823;53.586;10.040;2022-12-29T03:43:13;4.38;;;4.00;;
7563;SDS011;3823;53.586;10.040;2022-12-29T03:45:40;4.45;;;3.75;;
7563;SDS011;3823;53.586;10.040;2022-12-29T03:48:05;4.15;;;3.85;;
7563;SDS011;3823;53.586;10.040;2022-12-29T03:50:31;3.60;;;3.30;;
7563;SDS011;3823;53.586;10.040;2022-12-29T03:52:56;3.45;;;3.15;;
7563;SDS011;3823;53.586;10.040;2022-12-29T03:55:22;4.28;;;3.97;;
7563;SDS011;3823;53.586;10.040;2022-12-29T03:57:48;3.30;;;3.00;;
7563;SDS011;3823;53.586;10.040;2022-12-29T04:00:13;3.25;;;3.05;;
7563;SDS011;3823;53.586;10.040;2022-12-29T04:02:39;3.42;;;3.15;;
7563;SDS011;3823;53.586;10.040;2022-12-29T04:05:05;4.13;;;3.83;;
7563;SDS011;3823;53.586;10.040;2022-12-29T04:07:31;4.57;;;3.85;;
7563;SDS011;3823;53.586;10.040;2022-12-29T04:09:56;4.60;;;2.50;;
7563;SDS011;3823;53.586;10.040;2022-12-29T04:12:22;3.33;;;3.03;;
7563;SDS011;3823;53.586;10.040;2022-12-29T04:14:47;3.28;;;3.08;;
7563;SDS011;3823;53.586;10.040;2022-12-29T04:17:13;3.67;;;3.28;;
7563;SDS011;3823;53.586;10.040;2022-12-29T04:19:39;3.90;;;2.53;;
7563;SDS011;3823;53.586;10.040;2022-12-29T04:22:04;3.72;;;3.42;;
7563;SDS011;3823;53.586;10.040;2022-12-29T04:24:30;2.95;;;2.75;;
7563;SDS011;3823;53.586;10.040;2022-12-29T04:26:55;2.95;;;2.75;;
7563;SDS011;3823;53.586;10.040;2022-12-29T04:29:21;2.90;;;2.70;;
7563;SDS011;3823;53.586;10.040;2022-12-29T04:31:46;2.85;;;2.65;;
7563;SDS011;3823;53.586;10.040;2022-12-29T04:34:12;3.45;;;2.75;;
7563;SDS011;3823;53.586;10.040;2022-12-29T04:36:38;3.78;;;2.60;;
7563;SDS011;3823;53.586;10.040;2022-12-29T04:39:04;7.60;;;2.53;;
7563;SDS011;3823;53.586;10.040;2022-12-29T04:41:31;2.60;;;2.50;;
7563;SDS011;3823;53.586;10.040;2022-12-29T04:43:57;2.55;;;2.45;;
7563;SDS011;3823;53.586;10.040;2022-12-29T04:46:22;3.40;;;2.47;;
7563;SDS011;3823;53.586;10.040;2022-12-29T04:48:48;2.65;;;2.40;;
7563;SDS011;3823;53.586;10.040;2022-12-29T04:51:13;4.13;;;3.13;;
7563;SDS011;3823;53.586;10.040;2022-12-29T04:53:39;2.63;;;2.42;;
7563;SDS011;3823;53.586;10.040;2022-12-29T04:56:05;2.50;;;2.30;;
7563;SDS011;3823;53.586;10.040;2022-12-29T04:58:30;3.42;;;3.15;;
7563;SDS011;3823;53.586;10.040;2022-12-29T05:00:56;3.97;;;3.28;;
7563;SDS011;3823;53.586;10.040;2022-12-29T05:03:22;2.50;;;2.30;;
7563;SDS011;3823;53.586;10.040;2022-12-29T05:05:47;2.70;;;2.50;;
7563;SDS011;3823;53.586;10.040;2022-12-29T05:08:13;2.33;;;2.13;;
7563;SDS011;3823;53.586;10.040;2022-12-29T05:10:39;2.53;;;2.33;;
7563;SDS011;3823;53.586;10.040;2022-12-29T05:13:04;3.67;;;2.28;;
7563;SDS011;3823;53.586;10.040;2022-12-29T05:15:30;2.50;;;2.30;;
7563;SDS011;3823;53.586;10.040;2022-12-29T05:17:56;2.95;;;2.42;;
7563;SDS011;3823;53.586;10.040;2022-12-29T05:20:21;3.72;;;2.78;;
7563;SDS011;3823;53.586;10.040;2022-12-29T05:22:47;3.22;;;2.97;;
7563;SDS011;3823;53.586;10.040;2022-12-29T05:25:12;2.53;;;2.35;;
7563;SDS011;3823;53.586;10.040;2022-12-29T05:27:38;3.60;;;3.33;;
7563;SDS011;3823;53.586;10.040;2022-12-29T05:30:04;2.50;;;2.30;;
7563;SDS011;3823;53.586;10.040;2022-12-29T05:32:30;2.85;;;2.65;;
7563;SDS011;3823;53.586;10.040;2022-12-29T05:34:55;2.55;;;2.45;;
7563;SDS011;3823;53.586;10.040;2022-12-29T05:37:21;2.63;;;2.40;;
7563;SDS011;3823;53.586;10.040;2022-12-29T05:39:46;2.70;;;2.50;;
7563;SDS011;3823;53.586;10.040;2022-12-29T05:42:12;3.13;;;2.92;;
7563;SDS011;3823;53.586;10.040;2022-12-29T05:44:38;2.72;;;2.60;;
7563;SDS011;3823;53.586;10.040;2022-12-29T05:47:03;3.47;;;2.42;;
7563;SDS011;3823;53.586;10.040;2022-12-29T05:49:29;3.00;;;2.80;;
7563;SDS011;3823;53.586;10.040;2022-12-29T05:51:54;5.55;;;2.50;;
7563;SDS011;3823;53.586;10.040;2022-12-29T05:54:20;2.80;;;2.60;;
7563;SDS011;3823;53.586;10.040;2022-12-29T05:56:45;2.90;;;2.70;;
7563;SDS011;3823;53.586;10.040;2022-12-29T05:59:11;2.15;;;2.05;;
7563;SDS011;3823;53.586;10.040;2022-12-29T06:01:36;2.17;;;1.98;;
7563;SDS011;3823;53.586;10.040;2022-12-29T06:04:02;2.38;;;2.03;;
7563;SDS011;3823;53.586;10.040;2022-12-29T06:06:28;1.88;;;1.77;;
7563;SDS011;3823;53.586;10.040;2022-12-29T06:08:53;2.85;;;1.30;;
7563;SDS011;3823;53.586;10.040;2022-12-29T06:11:19;1.10;;;1.00;;
7563;SDS011;3823;53.586;10.040;2022-12-29T06:13:45;1.80;;;1.70;;
7563;SDS011;3823;53.586;10.040;2022-12-29T06:16:10;1.70;;;1.60;;
7563;SDS011;3823;53.586;10.040;2022-12-29T06:18:36;1.50;;;1.40;;
7563;SDS011;3823;53.586;10.040;2022-12-29T06:21:02;1.75;;;1.35;;
7563;SDS011;3823;53.586;10.040;2022-12-29T06:23:29;1.77;;;1.40;;
7563;SDS011;3823;53.586;10.040;2022-12-29T06:25:55;1.95;;;1.48;;
7563;SDS011;3823;53.586;10.040;2022-12-29T06:28:20;1.67;;;1.55;;
7563;SDS011;3823;53.586;10.040;2022-12-29T06:30:46;1.70;;;1.60;;
7563;SDS011;3823;53.586;10.040;2022-12-29T06:33:13;1.73;;;1.45;;
7563;SDS011;3823;53.586;10.040;2022-12-29T06:35:38;1.80;;;1.70;;
7563;SDS011;3823;53.586;10.040;2022-12-29T06:38:04;1.63;;;1.52;;
7563;SDS011;3823;53.586;10.040;2022-12-29T06:40:30;2.25;;;1.90;;
7563;SDS011;3823;53.586;10.040;2022-12-29T06:42:56;1.90;;;1.63;;
7563;SDS011;3823;53.586;10.040;2022-12-29T06:45:22;1.75;;;1.65;;
7563;SDS011;3823;53.586;10.040;2022-12-29T06:47:47;1.92;;;1.42;;
7563;SDS011;3823;53.586;10.040;2022-12-29T06:50:13;1.92;;;1.50;;
7563;SDS011;3823;53.586;10.040;2022-12-29T06:52:39;1.65;;;1.55;;
7563;SDS011;3823;53.586;10.040;2022-12-29T06:55:04;2.22;;;2.05;;
7563;SDS011;3823;53.586;10.040;2022-12-29T06:57:30;1.50;;;1.40;;
7563;SDS011;3823;53.586;10.040;2022-12-29T06:59:56;1.63;;;1.52;;
7563;SDS011;3823;53.586;10.040;2022-12-29T07:02:22;1.90;;;1.80;;
7563;SDS011;3823;53.586;10.040;2022-12-29T07:04:50;1.60;;;1.50;;
7563;SDS011;3823;53.586;10.040;2022-12-29T07:07:17;2.00;;;1.80;;
7563;SDS011;3823;53.586;10.040;2022-12-29T07:09:43;1.65;;;1.55;;
7563;SDS011;3823;53.586;10.040;2022-12-29T07:12:09;2.83;;;1.92;;
7563;SDS011;3823;53.586;10.040;2022-12-29T07:14:34;2.25;;;2.05;;
7563;SDS011;3823;53.586;10.040;2022-12-29T07:17:01;2.00;;;1.55;;
7563;SDS011;3823;53.586;10.040;2022-12-29T07:19:28;1.80;;;1.70;;
7563;SDS011;3823;53.586;10.040;2022-12-29T07:21:54;2.90;;;2.08;;
7563;SDS011;3823;53.586;10.040;2022-12-29T07:24:19;1.85;;;1.75;;
7563;SDS011;3823;53.586;10.040;2022-12-29T07:26:45;2.45;;;2.22;;
7563;SDS011;3823;53.586;10.040;2022-12-29T07:29:11;2.28;;;2.00;;
7563;SDS011;3823;53.586;10.040;2022-12-29T07:31:36;2.03;;;1.92;;
7563;SDS011;3823;53.586;10.040;2022-12-29T07:34:02;2.38;;;2.28;;
7563;SDS011;3823;53.586;10.040;2022-12-29T07:36:27;2.47;;;2.28;;
7563;SDS011;3823;53.586;10.040;2022-12-29T07:38:53;2.50;;;2.40;;
7563;SDS011;3823;53.586;10.040;2022-12-29T07:41:19;2.20;;;2.10;;
7563;SDS011;3823;53.586;10.040;2022-12-29T07:43:47;2.20;;;2.10;;
7563;SDS011;3823;53.586;10.040;2022-12-29T07:46:15;2.15;;;2.05;;
7563;SDS011;3823;53.586;10.040;2022-12-29T07:48:41;3.05;;;2.08;;
7563;SDS011;3823;53.586;10.040;2022-12-29T07:51:06;2.95;;;2.35;;
7563;SDS011;3823;53.586;10.040;2022-12-29T07:53:32;3.45;;;3.00;;
7563;SDS011;3823;53.586;10.040;2022-12-29T07:55:58;2.53;;;1.83;;
7563;SDS011;3823;53.586;10.040;2022-12-29T07:58:23;2.50;;;2.10;;
7563;SDS011;3823;53.586;10.040;2022-12-29T08:00:52;2.40;;;2.20;;
7563;SDS011;3823;53.586;10.040;2022-12-29T08:03:19;2.60;;;2.35;;
7563;SDS011;3823;53.586;10.040;2022-12-29T08:05:44;2.03;;;1.92;;
7563;SDS011;3823;53.586;10.040;2022-12-29T08:08:10;2.30;;;2.15;;
7563;SDS011;3823;53.586;10.040;2022-12-29T08:10:35;2.20;;;1.33;;
7563;SDS011;3823;53.586;10.040;2022-12-29T08:13:01;3.30;;;1.50;;
7563;SDS011;3823;53.586;10.040;2022-12-29T08:15:26;2.08;;;1.88;;
7563;SDS011;3823;53.586;10.040;2022-12-29T08:17:52;1.73;;;1.63;;
7563;SDS011;3823;53.586;10.040;2022-12-29T08:20:18;2.58;;;1.40;;
7563;SDS011;3823;53.586;10.040;2022-12-29T08:22:43;2.05;;;1.83;;
7563;SDS011;3823;53.586;10.040;2022-12-29T08:25:09;1.80;;;1.70;;
7563;SDS011;3823;53.586;10.040;2022-12-29T08:27:35;2.20;;;1.83;;
7563;SDS011;3823;53.586;10.040;2022-12-29T08:30:00;5.03;;;1.83;;
7563;SDS011;3823;53.586;10.040;2022-12-29T08:32:27;2.50;;;2.30;;
7563;SDS011;3823;53.586;10.040;2022-12-29T08:34:53;1.80;;;1.48;;
7563;SDS011;3823;53.586;10.040;2022-12-29T08:37:19;2.10;;;2.00;;
7563;SDS011;3823;53.586;10.040;2022-12-29T08:39:45;3.53;;;1.95;;
7563;SDS011;3823;53.586;10.040;2022-12-29T08:42:11;2.20;;;2.10;;
7563;SDS011;3823;53.586;10.040;2022-12-29T08:44:36;2.22;;;1.42;;
7563;SDS011;3823;53.586;10.040;2022-12-29T08:47:02;1.67;;;1.58;;
7563;SDS011;3823;53.586;10.040;2022-12-29T08:49:27;1.63;;;1.52;;
7563;SDS011;3823;53.586;10.040;2022-12-29T08:51:53;1.65;;;1.55;;
7563;SDS011;3823;53.586;10.040;2022-12-29T08:54:18;1.70;;;1.60;;
7563;SDS011;3823;53.586;10.040;2022-12-29T08:56:44;1.70;;;1.60;;
7563;SDS011;3823;53.586;10.040;2022-12-29T08:59:10;3.47;;;1.33;;
7563;SDS011;3823;53.586;10.040;2022-12-29T09:01:35;1.30;;;1.17;;
7563;SDS011;3823;53.586;10.040;2022-12-29T09:04:01;2.40;;;1.10;;
7563;SDS011;3823;53.586;10.040;2022-12-29T09:06:27;1.15;;;1.02;;
7563;SDS011;3823;53.586;10.040;2022-12-29T09:08:53;1.48;;;1.38;;
7563;SDS011;3823;53.586;10.040;2022-12-29T09:11:21;2.05;;;0.98;;
7563;SDS011;3823;53.586;10.040;2022-12-29T09:13:47;1.33;;;0.80;;
7563;SDS011;3823;53.586;10.040;2022-12-29T09:16:13;3.40;;;1.10;;
7563;SDS011;3823;53.586;10.040;2022-12-29T09:18:40;1.60;;;1.15;;
7563;SDS011;3823;53.586;10.040;2022-12-29T09:21:06;3.17;;;0.93;;
7563;SDS011;3823;53.586;10.040;2022-12-29T09:23:33;2.65;;;1.13;;
7563;SDS011;3823;53.586;10.040;2022-12-29T09:25:59;1.75;;;0.70;;
7563;SDS011;3823;53.586;10.040;2022-12-29T09:28:25;3.15;;;1.00;;
7563;SDS011;3823;53.586;10.040;2022-12-29T09:30:51;3.78;;;0.70;;
7563;SDS011;3823;53.586;10.040;2022-12-29T09:33:17;2.35;;;1.48;;
7563;SDS011;3823;53.586;10.040;2022-12-29T09:35:43;3.58;;;0.63;;
7563;SDS011;3823;53.586;10.040;2022-12-29T09:38:09;1.60;;;0.70;;
7563;SDS011;3823;53.586;10.040;2022-12-29T09:40:36;2.60;;;0.95;;
7563;SDS011;3823;53.586;10.040;2022-12-29T09:43:13;3.17;;;0.80;;
7563;SDS011;3823;53.586;10.040;2022-12-29T09:48:38;1.45;;;0.80;;
7563;SDS011;3823;53.586;10.040;2022-12-29T09:51:09;2.17;;;1.00;;
7563;SDS011;3823;53.586;10.040;2022-12-29T09:53:40;1.85;;;0.93;;
7563;SDS011;3823;53.586;10.040;2022-12-29T09:56:13;5.40;;;0.90;;
7563;SDS011;3823;53.586;10.040;2022-12-29T09:58:44;1.50;;;1.00;;
7563;SDS011;3823;53.586;10.040;2022-12-29T10:03:57;3.65;;;1.10;;
7563;SDS011;3823;53.586;10.040;2022-12-29T10:06:41;2.10;;;1.48;;
7563;SDS011;3823;53.586;10.040;2022-12-29T10:09:29;2.45;;;0.80;;
7563;SDS011;3823;53.586;10.040;2022-12-29T10:24:01;2.47;;;0.98;;
7563;SDS011;3823;53.586;10.040;2022-12-29T10:26:11;3.50;;;1.42;;
7563;SDS011;3823;53.586;10.040;2022-12-29T10:28:49;2.67;;;1.30;;
7563;SDS011;3823;53.586;10.040;2022-12-29T10:31:19;2.72;;;1.02;;
7563;SDS011;3823;53.586;10.040;2022-12-29T10:33:52;4.47;;;1.67;;
7563;SDS011;3823;53.586;10.040;2022-12-29T10:39:04;3.58;;;1.67;;
7563;SDS011;3823;53.586;10.040;2022-12-29T10:41:41;3.50;;;1.05;;
7563;SDS011;3823;53.586;10.040;2022-12-29T10:44:18;2.08;;;1.00;;
7563;SDS011;3823;53.586;10.040;2022-12-29T10:46:47;5.20;;;1.38;;
7563;SDS011;3823;53.586;10.040;2022-12-29T10:49:24;3.85;;;1.17;;
7563;SDS011;3823;53.586;10.040;2022-12-29T10:51:51;4.50;;;1.30;;
7563;SDS011;3823;53.586;10.040;2022-12-29T10:54:32;9.50;;;2.20;;
7563;SDS011;3823;53.586;10.040;2022-12-29T10:59:47;4.70;;;1.52;;
7563;SDS011;3823;53.586;10.040;2022-12-29T11:02:25;5.80;;;1.30;;
7563;SDS011;3823;53.586;10.040;2022-12-29T11:05:33;4.43;;;0.95;;
7563;SDS011;3823;53.586;10.040;2022-12-29T11:07:59;2.17;;;0.80;;
7563;SDS011;3823;53.586;10.040;2022-12-29T11:13:03;4.15;;;1.00;;
7563;SDS011;3823;53.586;10.040;2022-12-29T11:15:45;5.88;;;1.13;;
7563;SDS011;3823;53.586;10.040;2022-12-29T11:20:58;1.73;;;0.80;;
7563;SDS011;3823;53.586;10.040;2022-12-29T11:23:31;7.53;;;1.27;;
7563;SDS011;3823;53.586;10.040;2022-12-29T11:28:41;5.35;;;1.05;;
7563;SDS011;3823;53.586;10.040;2022-12-29T11:31:27;5.15;;;0.95;;
7563;SDS011;3823;53.586;10.040;2022-12-29T11:33:52;2.67;;;0.95;;
7563;SDS011;3823;53.586;10.040;2022-12-29T11:36:19;5.85;;;1.17;;
7563;SDS011;3823;53.586;10.040;2022-12-29T11:38:51;2.97;;;1.00;;
7563;SDS011;3823;53.586;10.040;2022-12-29T11:41:20;1.77;;;1.38;;
7563;SDS011;3823;53.586;10.040;2022-12-29T11:43:52;2.88;;;0.90;;
7563;SDS011;3823;53.586;10.040;2022-12-29T11:48:54;7.10;;;0.88;;
7563;SDS011;3823;53.586;10.040;2022-12-29T11:51:24;1.80;;;0.65;;
7563;SDS011;3823;53.586;10.040;2022-12-29T11:54:13;1.63;;;0.95;;
7563;SDS011;3823;53.586;10.040;2022-12-29T11:56:55;3.92;;;1.02;;
7563;SDS011;3823;53.586;10.040;2022-12-29T12:02:08;1.80;;;0.60;;
7563;SDS011;3823;53.586;10.040;2022-12-29T12:04:45;1.13;;;0.55;;
7563;SDS011;3823;53.586;10.040;2022-12-29T12:07:20;2.28;;;0.82;;
7563;SDS011;3823;53.586;10.040;2022-12-29T12:10:03;5.30;;;1.25;;
7563;SDS011;3823;53.586;10.040;2022-12-29T12:12:50;1.85;;;0.88;;
7563;SDS011;3823;53.586;10.040;2022-12-29T12:15:28;3.90;;;0.68;;
7563;SDS011;3823;53.586;10.040;2022-12-29T12:20:38;3.92;;;1.00;;
7563;SDS011;3823;53.586;10.040;2022-12-29T12:23:25;3.20;;;0.80;;
7563;SDS011;3823;53.586;10.040;2022-12-29T12:26:03;6.97;;;1.17;;
7563;SDS011;3823;53.586;10.040;2022-12-29T12:33:58;2.53;;;1.10;;
7563;SDS011;3823;53.586;10.040;2022-12-29T12:36:45;3.90;;;0.85;;
7563;SDS011;3823;53.586;10.040;2022-12-29T12:50:42;4.00;;;1.65;;
7563;SDS011;3823;53.586;10.040;2022-12-29T12:56:24;2.28;;;0.90;;
7563;SDS011;3823;53.586;10.040;2022-12-29T13:01:53;6.45;;;1.15;;
7563;SDS011;3823;53.586;10.040;2022-12-29T13:07:12;5.60;;;1.00;;
7563;SDS011;3823;53.586;10.040;2022-12-29T13:12:48;7.03;;;0.95;;
7563;SDS011;3823;53.586;10.040;2022-12-29T13:26:21;4.60;;;1.50;;
7563;SDS011;3823;53.586;10.040;2022-12-29T13:32:37;3.13;;;1.15;;
7563;SDS011;3823;53.586;10.040;2022-12-29T13:38:03;1.98;;;1.23;;
7563;SDS011;3823;53.586;10.040;2022-12-29T13:40:40;8.68;;;1.30;;
7563;SDS011;3823;53.586;10.040;2022-12-29T13:43:09;15.77;;;2.03;;
7563;SDS011;3823;53.586;10.040;2022-12-29T13:45:38;4.20;;;1.15;;
7563;SDS011;3823;53.586;10.040;2022-12-29T13:50:41;2.47;;;1.50;;
7563;SDS011;3823;53.586;10.040;2022-12-29T13:56:14;2.47;;;1.40;;
7563;SDS011;3823;53.586;10.040;2022-12-29T14:03:49;2.03;;;1.30;;
7563;SDS011;3823;53.586;10.040;2022-12-29T14:06:36;1.25;;;1.15;;
7563;SDS011;3823;53.586;10.040;2022-12-29T14:09:06;3.47;;;1.30;;
7563;SDS011;3823;53.586;10.040;2022-12-29T14:11:52;2.78;;;0.90;;
7563;SDS011;3823;53.586;10.040;2022-12-29T14:16:48;4.32;;;1.08;;
7563;SDS011;3823;53.586;10.040;2022-12-29T14:21:40;1.30;;;0.50;;
7563;SDS011;3823;53.586;10.040;2022-12-29T14:26:51;1.20;;;0.50;;
7563;SDS011;3823;53.586;10.040;2022-12-29T14:31:48;4.35;;;0.60;;
7563;SDS011;3823;53.586;10.040;2022-12-29T14:36:54;4.53;;;0.90;;
7563;SDS011;3823;53.586;10.040;2022-12-29T14:39:37;3.38;;;1.23;;
7563;SDS011;3823;53.586;10.040;2022-12-29T14:47:16;3.83;;;1.15;;
7563;SDS011;3823;53.586;10.040;2022-12-29T14:49:48;2.20;;;0.73;;
7563;SDS011;3823;53.586;10.040;2022-12-29T14:52:21;3.65;;;0.88;;
7563;SDS011;3823;53.586;10.040;2022-12-29T14:54:54;2.80;;;0.80;;
7563;SDS011;3823;53.586;10.040;2022-12-29T14:57:27;2.38;;;0.70;;
7563;SDS011;3823;53.586;10.040;2022-12-29T15:02:38;7.63;;;1.02;;
7563;SDS011;3823;53.586;10.040;2022-12-29T15:05:20;2.60;;;0.80;;
7563;SDS011;3823;53.586;10.040;2022-12-29T15:08:03;6.38;;;1.23;;
7563;SDS011;3823;53.586;10.040;2022-12-29T15:10:48;2.50;;;0.90;;
7563;SDS011;3823;53.586;10.040;2022-12-29T15:13:21;3.35;;;1.08;;
7563;SDS011;3823;53.586;10.040;2022-12-29T15:15:50;4.70;;;1.48;;
7563;SDS011;3823;53.586;10.040;2022-12-29T15:18:22;5.75;;;0.80;;
7563;SDS011;3823;53.586;10.040;2022-12-29T15:21:03;1.92;;;0.98;;
7563;SDS011;3823;53.586;10.040;2022-12-29T15:23:31;4.93;;;1.25;;
7563;SDS011;3823;53.586;10.040;2022-12-29T15:26:00;5.45;;;1.48;;
7563;SDS011;3823;53.586;10.040;2022-12-29T15:28:27;4.45;;;1.40;;
7563;SDS011;3823;53.586;10.040;2022-12-29T15:31:10;4.30;;;1.52;;
7563;SDS011;3823;53.586;10.040;2022-12-29T15:33:42;14.98;;;1.85;;
7563;SDS011;3823;53.586;10.040;2022-12-29T15:36:13;4.15;;;1.50;;
7563;SDS011;3823;53.586;10.040;2022-12-29T15:38:44;4.53;;;1.70;;
7563;SDS011;3823;53.586;10.040;2022-12-29T15:44:03;3.25;;;1.63;;
7563;SDS011;3823;53.586;10.040;2022-12-29T15:46:52;3.67;;;1.60;;
7563;SDS011;3823;53.586;10.040;2022-12-29T15:49:18;5.97;;;1.40;;
7563;SDS011;3823;53.586;10.040;2022-12-29T15:51:45;5.32;;;2.42;;
7563;SDS011;3823;53.586;10.040;2022-12-29T15:54:15;6.78;;;1.90;;
7563;SDS011;3823;53.586;10.040;2022-12-29T15:56:43;5.75;;;1.83;;
7563;SDS011;3823;53.586;10.040;2022-12-29T15:59:28;4.47;;;2.17;;
7563;SDS011;3823;53.586;10.040;2022-12-29T16:01:56;4.55;;;1.83;;
7563;SDS011;3823;53.586;10.040;2022-12-29T16:04:24;6.50;;;1.75;;
7563;SDS011;3823;53.586;10.040;2022-12-29T16:06:56;4.20;;;1.60;;
7563;SDS011;3823;53.586;10.040;2022-12-29T16:09:30;3.90;;;1.80;;
7563;SDS011;3823;53.586;10.040;2022-12-29T16:12:02;8.27;;;2.30;;
7563;SDS011;3823;53.586;10.040;2022-12-29T16:14:41;7.57;;;2.17;;
7563;SDS011;3823;53.586;10.040;2022-12-29T16:17:11;7.22;;;1.83;;
7563;SDS011;3823;53.586;10.040;2022-12-29T16:19:40;2.15;;;1.60;;
7563;SDS011;3823;53.586;10.040;2022-12-29T16:22:11;7.07;;;1.88;;
7563;SDS011;3823;53.586;10.040;2022-12-29T16:24:42;2.13;;;1.10;;
7563;SDS011;3823;53.586;10.040;2022-12-29T16:27:17;7.10;;;2.08;;
7563;SDS011;3823;53.586;10.040;2022-12-29T16:29:49;3.55;;;1.55;;
7563;SDS011;3823;53.586;10.040;2022-12-29T16:32:23;9.90;;;3.40;;
7563;SDS011;3823;53.586;10.040;2022-12-29T16:34:51;10.95;;;3.63;;
7563;SDS011;3823;53.586;10.040;2022-12-29T16:40:58;6.30;;;3.28;;
7563;SDS011;3823;53.586;10.040;2022-12-29T16:43:28;10.02;;;2.15;;
7563;SDS011;3823;53.586;10.040;2022-12-29T16:46:11;8.88;;;1.98;;
7563;SDS011;3823;53.586;10.040;2022-12-29T16:48:55;6.90;;;2.88;;
7563;SDS011;3823;53.586;10.040;2022-12-29T16:51:29;5.20;;;2.20;;
7563;SDS011;3823;53.586;10.040;2022-12-29T16:53:56;7.78;;;2.95;;
7563;SDS011;3823;53.586;10.040;2022-12-29T16:56:24;11.10;;;2.78;;
7563;SDS011;3823;53.586;10.040;2022-12-29T16:59:39;4.60;;;2.28;;
7563;SDS011;3823;53.586;10.040;2022-12-29T17:01:56;6.68;;;2.72;;
7563;SDS011;3823;53.586;10.040;2022-12-29T17:04:24;6.25;;;2.00;;
7563;SDS011;3823;53.586;10.040;2022-12-29T17:06:49;4.95;;;1.83;;
7563;SDS011;3823;53.586;10.040;2022-12-29T17:09:25;6.65;;;2.08;;
7563;SDS011;3823;53.586;10.040;2022-12-29T17:11:54;4.40;;;1.77;;
7563;SDS011;3823;53.586;10.040;2022-12-29T17:19:38;4.45;;;2.30;;
7563;SDS011;3823;53.586;10.040;2022-12-29T17:24:59;8.43;;;2.25;;
7563;SDS011;3823;53.586;10.040;2022-12-29T17:27:29;3.55;;;2.95;;
7563;SDS011;3823;53.586;10.040;2022-12-29T17:30:08;3.95;;;1.80;;
7563;SDS011;3823;53.586;10.040;2022-12-29T17:32:40;6.78;;;2.33;;
7563;SDS011;3823;53.586;10.040;2022-12-29T17:35:16;2.78;;;1.92;;
7563;SDS011;3823;53.586;10.040;2022-12-29T17:37:43;6.68;;;1.95;;
7563;SDS011;3823;53.586;10.040;2022-12-29T17:40:11;3.70;;;2.42;;
7563;SDS011;3823;53.586;10.040;2022-12-29T17:42:45;3.22;;;1.95;;
7563;SDS011;3823;53.586;10.040;2022-12-29T17:45:14;4.45;;;2.53;;
7563;SDS011;3823;53.586;10.040;2022-12-29T17:47:42;5.28;;;2.55;;
7563;SDS011;3823;53.586;10.040;2022-12-29T17:50:10;4.75;;;2.20;;
7563;SDS011;3823;53.586;10.040;2022-12-29T17:52:40;5.40;;;2.35;;
7563;SDS011;3823;53.586;10.040;2022-12-29T17:55:13;6.53;;;3.00;;
7563;SDS011;3823;53.586;10.040;2022-12-29T17:57:41;9.77;;;3.17;;
7563;SDS011;3823;53.586;10.040;2022-12-29T18:00:09;7.38;;;2.28;;